Time;durP1;ratioP1;P1;durP2;ratioP2;P2;SDS_P1;SDS_P2;PMS_P1;PMS_P2;Temp;Humidity;BMP_temperature;BMP_pressure;BME280_temperature;BME280_humidity;BME280_pressure;Samples;Min_cycle;Max_cycle;Signal;HPM_P1;HPM_P2
2024/02/11 00:01:09;;;;;;;36.70;13.30;;;;;;;8.06;99.02;97910.46;110710;1270;22164;-78
2024/02/11 00:04:04;;;;;;;38.00;13.10;;;;;;;8.08;98.88;97910.66;110716;1269;22947;-78
2024/02/11 00:06:55;;;;;;;32.70;13.10;;;;;;;8.09;98.89;97904.98;110722;1269;22226;-78
2024/02/11 00:09:44;;;;;;;;;;;;;;;8.10;98.79;97903.57;110748;1270;22355;-77
2024/02/11 00:12:35;;;;;;;34.10;12.80;;;;;;;8.10;98.67;97894.77;110756;1273;22250;-78
2024/02/11 00:15:26;;;;;;;38.00;12.90;;;;;;;8.11;98.94;97896.19;110746;1273;22232;-78
2024/02/11 00:18:19;;;;;;;38.10;12.90;;;;;;;8.12;98.88;97895.32;110747;1266;22290;-78
2024/02/11 00:21:11;;;;;;;43.30;14.30;;;;;;;8.12;98.98;97892.59;110739;1266;22883;-80
2024/02/11 00:24:02;;;;;;;37.40;12.60;;;;;;;8.12;98.69;97893.19;110746;1273;23337;-79
2024/02/11 00:26:51;;;;;;;;;;;;;;;8.13;98.88;97891.42;110691;1273;23180;-78
2024/02/11 00:29:41;;;;;;;36.60;12.50;;;;;;;8.13;98.87;97889.20;110752;1272;22396;-79
2024/02/11 00:32:30;;;;;;;;;;;;;;;8.13;98.86;97886.46;110746;1273;23194;-78
2024/02/11 00:35:21;;;;;;;37.90;14.20;;;;;;;8.13;98.96;97886.20;110803;1269;22331;-79
2024/02/11 00:38:13;;;;;;;40.40;16.30;;;;;;;8.15;98.91;97886.64;110724;1270;23104;-80
2024/02/11 00:41:04;;;;;;;43.60;19.10;;;;;;;8.15;98.76;97892.55;110743;1270;22118;-79
2024/02/11 00:43:55;;;;;;;43.00;17.00;;;;;;;8.16;98.88;97890.48;110729;1273;23003;-79
2024/02/11 00:46:46;;;;;;;40.10;15.30;;;;;;;8.15;98.81;97889.31;110746;1269;22151;-79
2024/02/11 00:49:37;;;;;;;50.00;15.80;;;;;;;8.16;98.95;97890.23;110749;1273;22966;-79
2024/02/11 00:52:28;;;;;;;41.70;15.30;;;;;;;8.17;98.87;97888.70;110776;1268;22167;-79
2024/02/11 00:55:21;;;;;;;38.80;14.70;;;;;;;8.19;98.98;97890.31;110765;1273;23272;-77
2024/02/11 00:58:13;;;;;;;37.30;14.80;;;;;;;8.21;98.82;97887.61;110712;1269;22203;-78
2024/02/11 01:01:05;;;;;;;38.00;15.30;;;;;;;8.22;98.77;97887.59;110704;1269;22572;-78
2024/02/11 01:03:57;;;;;;;37.40;13.60;;;;;;;8.24;98.97;97881.27;110735;1273;22213;-78
2024/02/11 01:06:48;;;;;;;38.30;14.80;;;;;;;8.27;98.95;97882.16;110741;1269;23207;-79
2024/02/11 01:09:39;;;;;;;38.30;14.40;;;;;;;8.29;98.95;97881.64;110668;1269;22183;-78
2024/02/11 01:12:31;;;;;;;40.20;14.40;;;;;;;8.32;99.07;97883.04;110713;1266;22273;-78
2024/02/11 01:15:26;;;;;;;41.10;14.50;;;;;;;8.34;99.09;97879.08;110739;1266;22413;-79
2024/02/11 01:18:18;;;;;;;44.40;15.30;;;;;;;8.36;99.26;97874.35;110766;1266;22483;-78
2024/02/11 01:21:09;;;;;;;43.30;13.30;;;;;;;8.39;99.29;97871.08;110743;1266;22146;-79
2024/02/11 01:24:01;;;;;;;40.10;14.50;;;;;;;8.42;99.18;97869.89;110735;1273;22275;-78
2024/02/11 01:26:53;;;;;;;44.90;14.60;;;;;;;8.46;99.35;97866.30;110744;1273;22325;-78
2024/02/11 01:29:44;;;;;;;38.70;12.70;;;;;;;8.51;99.36;97866.16;110777;1270;22109;-79
2024/02/11 01:32:34;;;;;;;37.60;11.70;;;;;;;8.56;99.44;97868.48;110750;1270;22265;-78
2024/02/11 01:35:28;;;;;;;33.00;10.30;;;;;;;8.62;99.58;97871.14;110744;1268;22148;-78
2024/02/11 01:38:19;;;;;;;37.70;11.30;;;;;;;8.68;99.74;97869.86;110754;1270;22097;-78
2024/02/11 01:41:10;;;;;;;33.70;11.30;;;;;;;8.73;99.70;97872.27;110752;1273;23011;-78
2024/02/11 01:44:00;;;;;;;32.90;10.10;;;;;;;8.78;99.98;97868.81;110766;1269;22202;-78
2024/02/11 01:46:51;;;;;;;35.50;10.10;;;;;;;8.84;100.00;97865.83;110762;1269;22991;-81
2024/02/11 01:49:43;;;;;;;36.20;11.60;;;;;;;8.88;99.97;97862.54;110802;1270;23040;-79
2024/02/11 01:52:34;;;;;;;39.50;10.70;;;;;;;8.94;100.00;97863.17;110778;1269;22989;-78
2024/02/11 01:55:26;;;;;;;41.00;11.30;;;;;;;8.97;100.00;97862.77;110762;1268;22296;-78
2024/02/11 01:58:19;;;;;;;35.00;10.30;;;;;;;9.01;100.00;97860.95;110712;1272;23327;-78
2024/02/11 02:01:10;;;;;;;36.00;12.10;;;;;;;9.04;100.00;97861.27;110688;1273;22261;-78
2024/02/11 02:04:02;;;;;;;38.00;11.00;;;;;;;9.09;100.00;97860.09;110697;1269;22222;-79
2024/02/11 02:06:53;;;;;;;34.70;10.10;;;;;;;9.13;100.00;97864.60;110743;1268;22126;-78
2024/02/11 02:09:45;;;;;;;33.80;10.50;;;;;;;9.18;100.00;97859.98;110758;1267;22495;-78
2024/02/11 02:12:36;;;;;;;31.70;9.60;;;;;;;9.21;99.97;97858.27;110759;1272;22224;-78
2024/02/11 02:15:26;;;;;;;37.40;10.70;;;;;;;9.24;99.97;97859.64;110774;1266;22336;-78
2024/02/11 02:18:17;;;;;;;40.50;9.60;;;;;;;9.27;99.94;97858.83;110782;1266;22377;-78
2024/02/11 02:21:09;;;;;;;35.10;9.70;;;;;;;9.30;99.96;97854.74;110754;1262;23029;-79
2024/02/11 02:23:59;;;;;;;35.40;9.90;;;;;;;9.33;99.85;97857.53;110772;1273;22195;-78
2024/02/11 02:26:50;;;;;;;27.60;8.30;;;;;;;9.36;99.82;97860.83;110696;1273;22201;-78
2024/02/11 02:29:41;;;;;;;32.70;9.20;;;;;;;9.39;99.80;97852.84;110755;1273;22579;-78
2024/02/11 02:32:32;;;;;;;31.70;8.10;;;;;;;9.44;99.87;97853.23;110794;1266;22099;-78
2024/02/11 02:35:22;;;;;;;;;;;;;;;9.49;99.88;97852.19;110794;1270;23143;-78
2024/02/11 02:38:13;;;;;;;30.00;7.20;;;;;;;9.50;99.75;97851.50;110762;1269;22202;-78
2024/02/11 02:41:04;;;;;;;28.10;5.90;;;;;;;9.54;99.79;97847.30;110736;1270;22999;-78
2024/02/11 02:43:54;;;;;;;32.70;7.90;;;;;;;9.57;99.70;97849.93;110748;1265;22127;-78
2024/02/11 02:46:45;;;;;;;28.60;6.00;;;;;;;9.60;99.62;97849.18;110753;1270;23003;-78
2024/02/11 02:49:36;;;;;;;24.80;6.00;;;;;;;9.63;99.62;97852.58;110795;1270;23157;-78
2024/02/11 02:52:28;;;;;;;26.90;5.50;;;;;;;9.65;99.57;97852.69;110743;1270;22272;-78
2024/02/11 02:55:20;;;;;;;24.20;5.80;;;;;;;9.67;99.42;97851.74;110766;1271;22195;-77
2024/02/11 02:58:14;;;;;;;40.20;7.60;;;;;;;9.69;99.49;97848.47;110737;1273;23056;-78
2024/02/11 03:01:05;;;;;;;31.40;7.60;;;;;;;9.71;99.46;97851.73;110721;1270;22125;-78
2024/02/11 03:04:00;;;;;;;35.00;7.20;;;;;;;9.72;99.36;97849.09;110780;1273;22058;-79
2024/02/11 03:06:51;;;;;;;30.40;7.30;;;;;;;9.72;99.45;97845.60;110746;1273;22109;-79
2024/02/11 03:09:42;;;;;;;29.50;7.30;;;;;;;9.72;99.57;97843.80;110784;1269;22241;-78
2024/02/11 03:12:33;;;;;;;34.00;7.80;;;;;;;9.73;99.67;97846.09;110728;1273;22200;-79
2024/02/11 03:15:24;;;;;;;33.40;7.40;;;;;;;9.73;99.58;97846.80;110749;1266;22160;-78
2024/02/11 03:18:15;;;;;;;30.20;7.70;;;;;;;9.74;99.57;97849.71;110737;1273;22255;-78
2024/02/11 03:21:06;;;;;;;23.60;6.60;;;;;;;9.73;99.58;97846.33;110776;1262;22152;-79
2024/02/11 03:23:57;;;;;;;29.20;6.90;;;;;;;9.74;99.31;97844.89;110730;1273;23647;-78
2024/02/11 03:26:47;;;;;;;29.50;7.40;;;;;;;9.75;99.44;97842.04;110783;1265;22946;-77
2024/02/11 03:29:38;;;;;;;23.80;6.50;;;;;;;9.76;99.21;97836.77;110780;1267;22422;-78
2024/02/11 03:32:27;;;;;;;;;;;;;;;9.78;99.11;97835.67;110784;1273;23742;-78
2024/02/11 03:35:18;;;;;;;25.40;7.10;;;;;;;9.79;99.14;97836.92;110791;1273;22174;-78
2024/02/11 03:38:09;;;;;;;27.70;7.10;;;;;;;9.80;99.26;97838.63;110795;1272;22156;-77
2024/02/11 03:41:00;;;;;;;29.70;8.00;;;;;;;9.80;99.25;97834.63;110774;1270;22356;-78
2024/02/11 03:43:50;;;;;;;22.80;6.80;;;;;;;9.81;99.42;97836.90;110755;1270;22160;-80
2024/02/11 03:46:41;;;;;;;28.10;6.20;;;;;;;9.79;99.43;97836.06;110745;1266;22091;-78
2024/02/11 03:49:32;;;;;;;25.60;6.10;;;;;;;9.79;99.26;97831.74;110781;1269;22080;-78
2024/02/11 03:52:23;;;;;;;23.10;6.80;;;;;;;9.79;99.33;97829.67;110745;1269;22202;-78
2024/02/11 03:55:14;;;;;;;22.60;6.30;;;;;;;9.80;99.33;97823.23;110764;1262;22186;-78
2024/02/11 03:58:05;;;;;;;23.10;5.20;;;;;;;9.80;99.22;97825.00;110808;1272;22172;-77
2024/02/11 04:00:58;;;;;;;20.60;6.10;;;;;;;9.81;99.07;97827.58;110729;1270;22149;-78
2024/02/11 04:03:50;;;;;;;23.40;6.10;;;;;;;9.82;99.01;97822.91;110807;1272;22161;-78
2024/02/11 04:06:41;;;;;;;30.90;7.90;;;;;;;9.82;99.10;97822.04;110791;1260;23008;-77
2024/02/11 04:09:33;;;;;;;26.70;6.40;;;;;;;9.82;99.11;97821.88;110807;1266;22248;-77
2024/02/11 04:12:24;;;;;;;29.30;6.40;;;;;;;9.82;99.09;97821.84;110723;1266;22399;-78
2024/02/11 04:15:16;;;;;;;28.60;6.60;;;;;;;9.83;99.16;97818.17;110750;1269;22309;-78
2024/02/11 04:18:12;;;;;;;23.70;6.40;;;;;;;9.83;99.23;97816.50;110776;1266;22295;-79
2024/02/11 04:21:04;;;;;;;22.10;5.10;;;;;;;9.82;99.36;97816.30;110765;1273;22374;-77
2024/02/11 04:23:55;;;;;;;33.90;7.60;;;;;;;9.81;99.22;97808.08;110725;1273;22216;-76
2024/02/11 04:26:46;;;;;;;19.70;4.70;;;;;;;9.81;99.33;97810.86;110830;1273;22243;-77
2024/02/11 04:29:40;;;;;;;23.90;4.90;;;;;;;9.80;99.19;97809.66;110785;1273;22202;-78
2024/02/11 04:32:31;;;;;;;18.90;4.50;;;;;;;9.81;99.41;97810.15;110774;1270;22169;-77
2024/02/11 04:35:24;;;;;;;21.70;3.90;;;;;;;9.80;99.55;97811.33;110793;1272;22256;-77
2024/02/11 04:38:15;;;;;;;18.20;4.60;;;;;;;9.79;99.67;97809.27;110806;1272;22806;-78
2024/02/11 04:41:06;;;;;;;16.50;3.20;;;;;;;9.79;99.76;97810.42;110767;1271;22257;-77
2024/02/11 04:43:57;;;;;;;19.10;4.40;;;;;;;9.78;99.92;97810.74;110770;1266;22275;-77
2024/02/11 04:46:48;;;;;;;20.30;3.40;;;;;;;9.76;99.96;97807.34;110788;1267;22355;-77
2024/02/11 04:49:39;;;;;;;19.20;3.70;;;;;;;9.76;99.98;97804.77;110802;1269;22369;-76
2024/02/11 04:52:30;;;;;;;23.00;5.30;;;;;;;9.73;100.00;97806.05;110836;1272;22990;-76
2024/02/11 04:55:22;;;;;;;15.70;4.00;;;;;;;9.73;100.00;97806.11;110818;1270;22383;-76
2024/02/11 04:58:15;;;;;;;19.40;4.80;;;;;;;9.71;100.00;97800.48;110803;1272;23201;-77
2024/02/11 05:01:06;;;;;;;21.10;4.60;;;;;;;9.70;100.00;97799.52;110701;1270;22365;-77
2024/02/11 05:03:59;;;;;;;18.80;4.10;;;;;;;9.71;100.00;97796.13;110815;1271;22797;-78
2024/02/11 05:06:51;;;;;;;17.40;4.10;;;;;;;9.71;100.00;97797.39;110825;1272;22720;-77
2024/02/11 05:09:46;;;;;;;20.20;3.80;;;;;;;9.70;100.00;97796.64;110814;1272;22159;-77
2024/02/11 05:12:38;;;;;;;16.30;3.40;;;;;;;9.70;100.00;97793.96;110765;1272;23131;-78
2024/02/11 05:15:29;;;;;;;17.30;3.70;;;;;;;9.70;100.00;97794.27;110744;1266;22348;-78
2024/02/11 05:18:20;;;;;;;15.70;3.40;;;;;;;9.70;100.00;97792.84;110813;1266;22398;-77
2024/02/11 05:21:11;;;;;;;19.90;4.50;;;;;;;9.70;100.00;97791.06;110799;1266;22299;-78
2024/02/11 05:24:02;;;;;;;24.50;5.30;;;;;;;9.69;100.00;97789.02;109380;1273;22589;-78
2024/02/11 05:26:54;;;;;;;18.90;4.40;;;;;;;9.68;100.00;97791.81;107854;1274;25173;-77
2024/02/11 05:29:45;;;;;;;24.10;7.40;;;;;;;9.65;100.00;97790.91;107955;1273;22728;-77
2024/02/11 05:32:38;;;;;;;19.70;4.60;;;;;;;9.63;100.00;97789.94;107911;1273;22747;-77
2024/02/11 05:35:34;;;;;;;22.20;6.30;;;;;;;9.60;100.00;97785.06;107882;1266;22587;-77
2024/02/11 05:38:25;;;;;;;26.00;7.30;;;;;;;9.56;100.00;97783.65;107907;1266;22565;-77
2024/02/11 05:41:17;;;;;;;20.70;5.10;;;;;;;9.54;100.00;97782.16;108047;1271;22737;-78
2024/02/11 05:44:08;;;;;;;22.00;6.00;;;;;;;9.51;100.00;97784.95;108118;1272;22705;-77
2024/02/11 05:47:00;;;;;;;21.40;5.80;;;;;;;9.49;100.00;97783.72;108307;1270;25407;-77
2024/02/11 05:49:51;;;;;;;26.70;7.60;;;;;;;9.47;100.00;97782.13;108031;1273;22579;-77
2024/02/11 05:52:43;;;;;;;24.30;6.80;;;;;;;9.45;100.00;97782.77;108068;1270;22538;-77
2024/02/11 05:55:34;;;;;;;25.80;7.10;;;;;;;9.44;100.00;97781.33;108038;1273;22604;-79
2024/02/11 05:58:25;;;;;;;24.40;6.70;;;;;;;9.43;100.00;97780.39;108201;1272;22544;-77
2024/02/11 06:01:16;;;;;;;18.60;6.20;;;;;;;9.41;100.00;97779.25;108111;1272;22555;-76
2024/02/11 06:04:08;;;;;;;20.80;6.30;;;;;;;9.40;100.00;97777.18;108295;1273;24304;-83
2024/02/11 06:06:59;;;;;;;23.50;6.90;;;;;;;9.39;100.00;97778.21;107962;1273;22995;-83
2024/02/11 06:09:50;;;;;;;22.40;6.10;;;;;;;9.39;100.00;97781.35;107948;1267;23206;-83
2024/02/11 06:12:42;;;;;;;21.80;6.70;;;;;;;9.39;100.00;97781.46;107920;1272;24386;-83
2024/02/11 06:15:37;;;;;;;20.60;5.60;;;;;;;9.37;100.00;97782.42;108036;1270;24192;-82
2024/02/11 06:18:29;;;;;;;23.40;7.30;;;;;;;9.36;100.00;97780.22;107859;1266;24257;-82
2024/02/11 06:21:20;;;;;;;21.10;5.40;;;;;;;9.36;100.00;97778.20;107937;1273;22557;-83
2024/02/11 06:24:12;;;;;;;16.70;4.80;;;;;;;9.36;100.00;97778.06;108003;1266;22602;-83
2024/02/11 06:27:03;;;;;;;25.10;4.60;;;;;;;9.35;100.00;97782.18;108150;1273;25243;-83
2024/02/11 06:29:54;;;;;;;13.40;4.50;;;;;;;9.34;100.00;97783.86;108066;1273;22779;-82
2024/02/11 06:32:46;;;;;;;14.80;3.70;;;;;;;9.33;100.00;97787.56;107871;1273;23390;-83
2024/02/11 06:35:39;;;;;;;17.60;4.40;;;;;;;9.32;100.00;97790.37;108071;1272;25349;-83
2024/02/11 06:38:30;;;;;;;16.00;3.20;;;;;;;9.32;100.00;97790.66;108213;1266;23390;-84
2024/02/11 06:41:21;;;;;;;15.90;4.40;;;;;;;9.31;100.00;97784.27;108233;1266;22677;-82
2024/02/11 06:44:12;;;;;;;13.80;4.10;;;;;;;9.31;100.00;97782.14;108214;1266;22657;-82
2024/02/11 06:47:03;;;;;;;11.70;2.60;;;;;;;9.30;100.00;97783.67;108148;1273;25466;-82
2024/02/11 06:49:54;;;;;;;12.10;3.00;;;;;;;9.29;100.00;97784.59;108063;1273;26188;-82
2024/02/11 06:52:48;;;;;;;16.70;3.10;;;;;;;9.29;100.00;97784.33;107886;1273;22737;-82
2024/02/11 06:55:40;;;;;;;10.60;2.40;;;;;;;9.30;100.00;97780.93;107722;1273;24235;-82
2024/02/11 06:58:32;;;;;;;12.90;2.70;;;;;;;9.31;100.00;97781.16;107975;1266;22619;-81
2024/02/11 07:01:23;;;;;;;13.40;2.50;;;;;;;9.32;100.00;97780.45;108049;1273;22549;-81
2024/02/11 07:04:15;;;;;;;13.30;3.00;;;;;;;9.33;100.00;97774.83;108175;1270;22588;-82
2024/02/11 07:07:06;;;;;;;13.80;2.90;;;;;;;9.33;100.00;97778.20;108201;1273;26659;-81
2024/02/11 07:09:57;;;;;;;11.90;3.20;;;;;;;9.34;100.00;97778.84;107935;1273;24361;-81
2024/02/11 07:12:48;;;;;;;13.20;3.40;;;;;;;9.35;100.00;97778.64;108070;1273;22538;-82
2024/02/11 07:15:39;;;;;;;13.50;3.10;;;;;;;9.34;100.00;97778.34;108009;1273;22998;-82
2024/02/11 07:18:30;;;;;;;12.40;2.40;;;;;;;9.35;100.00;97780.09;108019;1270;22564;-82
2024/02/11 07:21:21;;;;;;;14.90;3.90;;;;;;;9.36;100.00;97778.81;108274;1272;22690;-82
2024/02/11 07:24:12;;;;;;;12.80;3.30;;;;;;;9.37;100.00;97782.55;108001;1267;24807;-83
2024/02/11 07:27:06;;;;;;;15.70;4.70;;;;;;;9.38;100.00;97784.40;107841;1272;25490;-82
2024/02/11 07:29:57;;;;;;;17.00;4.40;;;;;;;9.38;100.00;97785.05;107931;1273;22676;-83
2024/02/11 07:32:47;;;;;;;11.80;4.00;;;;;;;9.39;100.00;97784.24;107926;1273;22567;-83
2024/02/11 07:35:38;;;;;;;18.00;4.30;;;;;;;9.38;100.00;97782.13;107778;1272;22760;-84
2024/02/11 07:38:30;;;;;;;15.00;4.60;;;;;;;9.38;100.00;97783.89;107952;1266;22778;-84
2024/02/11 07:41:22;;;;;;;17.70;4.80;;;;;;;9.38;100.00;97785.11;108022;1267;22537;-83
2024/02/11 07:44:16;;;;;;;19.30;4.10;;;;;;;9.38;100.00;97782.73;107827;1266;22541;-83
2024/02/11 07:47:07;;;;;;;16.40;4.40;;;;;;;9.37;100.00;97786.14;107901;1267;22621;-85
2024/02/11 07:50:00;;;;;;;20.60;6.40;;;;;;;9.36;100.00;97781.59;107885;1273;23342;-84
2024/02/11 07:52:51;;;;;;;21.70;6.30;;;;;;;9.36;100.00;97781.70;107827;1273;23181;-83
2024/02/11 07:55:41;;;;;;;16.10;4.90;;;;;;;9.36;100.00;97780.73;107996;1273;22642;-84
2024/02/11 07:58:34;;;;;;;23.50;7.00;;;;;;;9.36;100.00;97780.79;107811;1273;22570;-84
2024/02/11 08:01:25;;;;;;;22.20;5.30;;;;;;;9.37;100.00;97779.09;108057;1272;24333;-83
2024/02/11 08:04:16;;;;;;;19.90;5.70;;;;;;;9.38;100.00;97780.70;107855;1273;22540;-83
2024/02/11 08:07:07;;;;;;;25.20;6.80;;;;;;;9.39;100.00;97780.70;107953;1272;24382;-83
2024/02/11 08:09:58;;;;;;;25.70;8.30;;;;;;;9.41;100.00;97778.49;107886;1273;23827;-83
2024/02/11 08:12:49;;;;;;;27.00;8.70;;;;;;;9.42;100.00;97776.24;107915;1273;22591;-83
2024/02/11 08:15:40;;;;;;;20.70;6.70;;;;;;;9.43;100.00;97776.08;107989;1273;24164;-83
2024/02/11 08:18:31;;;;;;;24.40;6.80;;;;;;;9.43;100.00;97776.83;107953;1273;22618;-84
2024/02/11 08:21:22;;;;;;;26.90;7.80;;;;;;;9.45;100.00;97776.30;108013;1266;24236;-83
2024/02/11 08:24:14;;;;;;;23.30;7.40;;;;;;;9.47;100.00;97772.36;108001;1273;22587;-84
2024/02/11 08:27:05;;;;;;;22.90;7.60;;;;;;;9.49;100.00;97774.36;108003;1269;24352;-83
2024/02/11 08:29:57;;;;;;;19.70;6.90;;;;;;;9.50;100.00;97767.20;108185;1273;23337;-83
2024/02/11 08:32:48;;;;;;;26.90;7.80;;;;;;;9.51;100.00;97767.95;108184;1271;25424;-83
2024/02/11 08:35:39;;;;;;;27.70;12.90;;;;;;;9.53;100.00;97766.04;108168;1273;25399;-83
2024/02/11 08:38:31;;;;;;;24.90;9.10;;;;;;;9.56;100.00;97765.63;108166;1266;23297;-84
2024/02/11 08:41:22;;;;;;;73.10;33.20;;;;;;;9.57;100.00;97764.05;108066;1273;26646;-83
2024/02/11 08:44:14;;;;;;;114.00;57.50;;;;;;;9.58;100.00;97765.70;108081;1273;23335;-83
2024/02/11 08:47:08;;;;;;;89.80;42.90;;;;;;;9.61;100.00;97763.33;107723;1273;22663;-84
2024/02/11 08:49:59;;;;;;;71.90;36.50;;;;;;;9.63;100.00;97758.96;108070;1274;25308;-84
2024/02/11 08:52:50;;;;;;;48.10;22.30;;;;;;;9.65;100.00;97752.77;108002;1273;22542;-83
2024/02/11 08:55:42;;;;;;;30.00;15.40;;;;;;;9.67;100.00;97750.86;107955;1273;25313;-84
2024/02/11 08:58:33;;;;;;;37.50;18.30;;;;;;;9.68;100.00;97754.92;107955;1273;24291;-83
2024/02/11 09:01:24;;;;;;;67.30;30.50;;;;;;;9.70;100.00;97753.02;107997;1270;22514;-83
2024/02/11 09:04:15;;;;;;;58.20;26.10;;;;;;;9.71;100.00;97753.52;108091;1273;23932;-83
2024/02/11 09:07:08;;;;;;;29.70;12.10;;;;;;;9.72;100.00;97753.87;108075;1272;22679;-83
2024/02/11 09:09:59;;;;;;;41.50;16.20;;;;;;;9.72;100.00;97752.42;107927;1270;23133;-82
2024/02/11 09:12:50;;;;;;;36.40;14.00;;;;;;;9.73;100.00;97750.85;107870;1272;25539;-82
2024/02/11 09:15:42;;;;;;;27.50;9.50;;;;;;;9.75;100.00;97749.20;107989;1272;24344;-83
2024/02/11 09:18:33;;;;;;;25.40;8.60;;;;;;;9.76;100.00;97746.14;107844;1273;22602;-84
2024/02/11 09:21:24;;;;;;;21.50;8.00;;;;;;;9.78;100.00;97746.35;107901;1273;22531;-83
2024/02/11 09:24:16;;;;;;;25.40;6.30;;;;;;;9.82;100.00;97746.86;108027;1273;22625;-82
2024/02/11 09:27:08;;;;;;;20.10;6.60;;;;;;;9.85;100.00;97749.98;108028;1267;24226;-83
2024/02/11 09:29:59;;;;;;;20.20;6.60;;;;;;;9.88;100.00;97746.03;108071;1270;24191;-84
2024/02/11 09:32:50;;;;;;;23.00;6.80;;;;;;;9.92;100.00;97748.49;107968;1271;25388;-83
2024/02/11 09:35:41;;;;;;;19.60;6.90;;;;;;;9.94;100.00;97750.27;107920;1272;22827;-83
2024/02/11 09:38:32;;;;;;;25.00;7.40;;;;;;;9.96;100.00;97749.12;107838;1267;22922;-82
2024/02/11 09:41:23;;;;;;;16.50;5.90;;;;;;;9.99;100.00;97754.86;108094;1266;23448;-82
2024/02/11 09:44:17;;;;;;;24.00;7.40;;;;;;;10.00;100.00;97753.05;108049;1267;25281;-82
2024/02/11 09:47:10;;;;;;;26.20;8.00;;;;;;;10.01;100.00;97753.59;108084;1263;22645;-83
2024/02/11 09:50:04;;;;;;;18.40;5.40;;;;;;;10.01;100.00;97749.40;107999;1273;22784;-83
2024/02/11 09:52:55;;;;;;;16.40;5.40;;;;;;;10.00;100.00;97752.48;108103;1273;23596;-82
2024/02/11 09:55:46;;;;;;;22.30;5.80;;;;;;;9.99;100.00;97750.33;107851;1273;25400;-82
2024/02/11 09:58:37;;;;;;;19.00;5.60;;;;;;;9.99;100.00;97749.73;110794;1273;22293;-83
2024/02/11 10:01:27;;;;;;;;;;;;;;;9.99;100.00;97753.29;108589;1273;23808;-83
2024/02/11 10:04:25;;;;;;;22.40;6.40;;;;;;;9.98;100.00;97751.27;107588;1270;22582;-83
2024/02/11 10:07:24;;;;;;;18.20;6.10;;;;;;;9.98;100.00;97752.68;107784;1273;25224;-83
2024/02/11 10:10:16;;;;;;;16.70;6.00;;;;;;;9.99;100.00;97749.73;107877;1273;24244;-86
2024/02/11 10:13:08;;;;;;;21.70;6.30;;;;;;;10.00;100.00;97751.99;108018;1269;22782;-85
2024/02/11 10:15:59;;;;;;;25.60;6.60;;;;;;;9.99;100.00;97745.98;108135;1270;24219;-87
2024/02/11 10:18:50;;;;;;;23.30;7.80;;;;;;;10.00;100.00;97747.84;107815;1273;24198;-86
2024/02/11 10:21:45;;;;;;;22.70;7.30;;;;;;;10.00;100.00;97749.26;108088;1266;22713;-86
2024/02/11 10:24:37;;;;;;;23.60;8.40;;;;;;;10.01;100.00;97757.45;107665;1266;24190;-86
2024/02/11 10:27:30;;;;;;;27.70;9.80;;;;;;;10.01;100.00;97756.74;107683;1273;22851;-85
2024/02/11 10:30:21;;;;;;;20.80;6.80;;;;;;;10.00;100.00;97751.39;107875;1267;22517;-86
2024/02/11 10:33:13;;;;;;;22.20;6.90;;;;;;;10.01;100.00;97749.54;108115;1273;24225;-86
2024/02/11 10:36:06;;;;;;;23.20;6.90;;;;;;;10.02;100.00;97742.21;108070;1267;22538;-86
2024/02/11 10:38:58;;;;;;;11.60;4.30;;;;;;;10.02;100.00;97745.30;107948;1270;23291;-85
2024/02/11 10:41:50;;;;;;;16.60;4.90;;;;;;;10.01;100.00;97743.67;107544;1273;123655;-86
2024/02/11 10:44:43;;;;;;;17.10;5.80;;;;;;;10.01;100.00;97746.11;107876;1270;23867;-86
2024/02/11 10:47:34;;;;;;;24.20;6.60;;;;;;;10.01;100.00;97742.66;110773;1273;22833;-84
2024/02/11 10:50:24;;;;;;;18.00;6.30;;;;;;;10.01;100.00;97739.31;110777;1273;23109;-82
2024/02/11 10:53:18;;;;;;;14.90;4.70;;;;;;;10.01;100.00;97741.45;110771;1270;22378;-86
2024/02/11 10:56:13;;;;;;;20.60;5.10;;;;;;;10.01;100.00;97743.01;110772;1267;22172;-85
2024/02/11 10:59:13;;;;;;;22.10;6.40;;;;;;;10.02;100.00;97741.15;110813;1273;22200;-84
2024/02/11 11:02:05;;;;;;;15.50;5.60;;;;;;;10.02;100.00;97739.29;110859;1267;22110;-81
2024/02/11 11:04:58;;;;;;;17.80;5.70;;;;;;;10.02;100.00;97737.25;110924;1273;22043;-85
2024/02/11 11:07:53;;;;;;;19.20;5.20;;;;;;;10.03;100.00;97734.65;110909;1273;23014;-86
2024/02/11 11:10:44;;;;;;;18.30;7.00;;;;;;;10.02;100.00;97731.81;110827;1273;22316;-85
2024/02/11 11:13:33;;;;;;;;;;;;;;;10.04;100.00;97734.07;110822;1273;22372;-87
2024/02/11 11:16:28;;;;;;;15.20;5.90;;;;;;;10.05;100.00;97730.20;110798;1273;22121;-85
2024/02/11 11:19:20;;;;;;;20.00;7.80;;;;;;;10.07;100.00;97727.28;109732;1273;24571;-85
2024/02/11 11:22:11;;;;;;;21.20;5.90;;;;;;;10.08;100.00;97726.98;108969;1267;23777;-85
2024/02/11 11:25:02;;;;;;;18.80;6.50;;;;;;;10.09;100.00;97731.10;108991;1269;22555;-86
2024/02/11 11:28:12;;;;;;;16.00;5.10;;;;;;;10.10;100.00;97726.77;107755;1264;25964;-81
2024/02/11 11:31:03;;;;;;;19.00;6.10;;;;;;;10.11;100.00;97726.37;107765;1273;22639;-81
2024/02/11 11:33:54;;;;;;;19.70;5.60;;;;;;;10.13;100.00;97724.20;107751;1273;25480;-81
2024/02/11 11:36:45;;;;;;;18.70;6.70;;;;;;;10.13;100.00;97724.65;107618;1273;22589;-81
2024/02/11 11:39:36;;;;;;;22.00;8.00;;;;;;;10.15;100.00;97722.89;107705;1254;22573;-82
2024/02/11 11:42:28;;;;;;;16.50;5.70;;;;;;;10.17;100.00;97720.42;107497;1273;22544;-80
2024/02/11 11:45:20;;;;;;;20.50;5.90;;;;;;;10.18;100.00;97720.82;107508;1267;25570;-80
2024/02/11 11:48:16;;;;;;;20.70;5.70;;;;;;;10.18;100.00;97717.65;107576;1261;22551;-82
2024/02/11 11:51:07;;;;;;;19.00;7.30;;;;;;;10.18;100.00;97720.96;110797;1270;22214;-83
2024/02/11 11:53:59;;;;;;;17.30;7.10;;;;;;;10.19;100.00;97720.83;110773;1271;22838;-84
2024/02/11 11:56:57;;;;;;;23.30;7.20;;;;;;;10.20;100.00;97722.55;110740;1269;22133;-82
2024/02/11 11:59:57;;;;;;;23.10;7.20;;;;;;;10.22;100.00;97720.83;110754;1266;23228;-84
2024/02/11 12:02:48;;;;;;;16.50;6.60;;;;;;;10.24;100.00;97721.45;110780;1267;22180;-83
2024/02/11 12:05:40;;;;;;;20.00;7.00;;;;;;;10.25;100.00;97716.45;110747;1266;23062;-83
2024/02/11 12:08:31;;;;;;;18.40;6.50;;;;;;;10.27;100.00;97722.04;110690;1267;22747;-83
2024/02/11 12:11:22;;;;;;;19.30;6.10;;;;;;;10.29;100.00;97718.39;109055;1267;22553;-82
2024/02/11 12:14:13;;;;;;;24.60;7.60;;;;;;;10.31;100.00;97715.12;107681;1273;26923;-81
2024/02/11 12:17:05;;;;;;;19.10;8.00;;;;;;;10.32;100.00;97717.54;107721;1273;22833;-82
2024/02/11 12:20:00;;;;;;;20.30;8.10;;;;;;;10.31;100.00;97715.02;107701;1273;24203;-82
2024/02/11 12:22:51;;;;;;;25.50;9.20;;;;;;;10.30;100.00;97710.89;107675;1267;22532;-82
2024/02/11 12:25:42;;;;;;;25.00;9.30;;;;;;;10.30;100.00;97712.46;107876;1273;22556;-82
2024/02/11 12:28:35;;;;;;;27.50;9.80;;;;;;;10.29;100.00;97708.77;107743;1273;25494;-82
2024/02/11 12:31:28;;;;;;;24.90;9.20;;;;;;;10.29;100.00;97708.42;110703;1270;22733;-83
2024/02/11 12:34:19;;;;;;;24.20;10.00;;;;;;;10.29;100.00;97707.20;110681;1273;22127;-84
2024/02/11 12:37:11;;;;;;;22.20;9.20;;;;;;;10.29;100.00;97705.52;110657;1266;22121;-83
2024/02/11 12:40:02;;;;;;;24.20;7.70;;;;;;;10.30;100.00;97705.92;109686;1267;22576;-84
2024/02/11 12:43:00;;;;;;;21.80;8.80;;;;;;;10.31;100.00;97703.41;107663;1266;22602;-84
2024/02/11 12:45:50;;;;;;;29.00;10.90;;;;;;;10.32;100.00;97704.95;110716;1267;23204;-85
2024/02/11 12:48:43;;;;;;;33.80;12.00;;;;;;;10.35;100.00;97704.19;110683;1254;22955;-86
2024/02/11 12:51:34;;;;;;;26.30;10.40;;;;;;;10.35;100.00;97708.48;110798;1267;22368;-84
2024/02/11 12:54:25;;;;;;;27.80;10.70;;;;;;;10.35;100.00;97702.91;110739;1269;22283;-85
2024/02/11 12:57:15;;;;;;;25.40;10.00;;;;;;;10.37;100.00;97705.81;110741;1262;22291;-85
2024/02/11 13:00:06;;;;;;;;;;;;;;;10.36;100.00;97703.86;110752;1270;22536;-85
2024/02/11 13:02:56;;;;;;;19.70;7.90;;;;;;;10.38;100.00;97704.93;110754;1266;22706;-86
2024/02/11 13:05:48;;;;;;;24.20;9.80;;;;;;;10.41;100.00;97700.92;110725;1273;22204;-85
2024/02/11 13:08:41;;;;;;;26.00;11.50;;;;;;;10.43;100.00;97701.21;110746;1273;22146;-85
2024/02/11 13:11:32;;;;;;;22.60;9.50;;;;;;;10.45;100.00;97697.78;110772;1266;22145;-83